sensor_id;sensor_type;location;lat;lon;timestamp;pressure;altitude;pressure_sealevel;temperature
67599;BMP280;62026;39.230;9.122;2022-10-16T00:01:52;101342.69;;;22.23
67599;BMP280;62026;39.230;9.122;2022-10-16T00:04:17;101348.91;;;22.18
67599;BMP280;62026;39.230;9.122;2022-10-16T00:06:43;101341.91;;;22.17
67599;BMP280;62026;39.230;9.122;2022-10-16T00:09:09;101349.44;;;22.15
67599;BMP280;62026;39.230;9.122;2022-10-16T00:11:37;101345.66;;;22.16
67599;BMP280;62026;39.230;9.122;2022-10-16T00:14:07;101343.00;;;22.11
67599;BMP280;62026;39.230;9.122;2022-10-16T00:16:33;101332.78;;;22.08
67599;BMP280;62026;39.230;9.122;2022-10-16T00:18:59;101344.63;;;22.12
67599;BMP280;62026;39.230;9.122;2022-10-16T00:21:27;101351.09;;;22.11
67599;BMP280;62026;39.230;9.122;2022-10-16T00:23:55;101337.66;;;22.01
67599;BMP280;62026;39.230;9.122;2022-10-16T00:26:22;101353.75;;;22.06
67599;BMP280;62026;39.230;9.122;2022-10-16T00:28:49;101338.16;;;22.08
67599;BMP280;62026;39.230;9.122;2022-10-16T00:31:16;101344.13;;;22.05
67599;BMP280;62026;39.230;9.122;2022-10-16T00:33:42;101347.06;;;22.04
67599;BMP280;62026;39.230;9.122;2022-10-16T00:36:11;101335.00;;;21.96
67599;BMP280;62026;39.230;9.122;2022-10-16T00:38:38;101343.56;;;21.98
67599;BMP280;62026;39.230;9.122;2022-10-16T00:41:05;101342.22;;;22.00
67599;BMP280;62026;39.230;9.122;2022-10-16T00:43:41;101345.19;;;21.99
67599;BMP280;62026;39.230;9.122;2022-10-16T00:46:15;101346.25;;;21.98
67599;BMP280;62026;39.230;9.122;2022-10-16T00:48:45;101333.91;;;21.92
67599;BMP280;62026;39.230;9.122;2022-10-16T00:51:11;101338.75;;;21.95
67599;BMP280;62026;39.230;9.122;2022-10-16T00:53:37;101340.38;;;21.96
67599;BMP280;62026;39.230;9.122;2022-10-16T00:56:03;101341.97;;;21.92
67599;BMP280;62026;39.230;9.122;2022-10-16T00:58:29;101331.22;;;21.87
67599;BMP280;62026;39.230;9.122;2022-10-16T01:00:55;101341.97;;;21.92
67599;BMP280;62026;39.230;9.122;2022-10-16T01:03:30;101339.84;;;21.89
67599;BMP280;62026;39.230;9.122;2022-10-16T01:08:57;101333.41;;;21.80
67599;BMP280;62026;39.230;9.122;2022-10-16T01:14:01;101339.84;;;21.89
67599;BMP280;62026;39.230;9.122;2022-10-16T01:21:36;101336.66;;;21.77
67599;BMP280;62026;39.230;9.122;2022-10-16T01:32:00;101359.75;;;21.78
67599;BMP280;62026;39.230;9.122;2022-10-16T01:34:37;101366.72;;;21.79
67599;BMP280;62026;39.230;9.122;2022-10-16T01:37:14;101361.66;;;21.72
67599;BMP280;62026;39.230;9.122;2022-10-16T01:39:42;101364.09;;;21.74
67599;BMP280;62026;39.230;9.122;2022-10-16T01:42:15;101369.47;;;21.74
67599;BMP280;62026;39.230;9.122;2022-10-16T01:44:43;101367.84;;;21.73
67599;BMP280;62026;39.230;9.122;2022-10-16T01:47:12;101369.72;;;21.72
67599;BMP280;62026;39.230;9.122;2022-10-16T01:49:40;101370.78;;;21.71
67599;BMP280;62026;39.230;9.122;2022-10-16T01:52:15;101377.50;;;21.69
67599;BMP280;62026;39.230;9.122;2022-10-16T01:54:46;101369.44;;;21.69
67599;BMP280;62026;39.230;9.122;2022-10-16T01:57:15;101361.94;;;21.66
67599;BMP280;62026;39.230;9.122;2022-10-16T01:59:47;101369.69;;;21.62
67599;BMP280;62026;39.230;9.122;2022-10-16T02:02:15;101365.19;;;21.57
67599;BMP280;62026;39.230;9.122;2022-10-16T02:04:46;101367.28;;;21.55
67599;BMP280;62026;39.230;9.122;2022-10-16T02:07:13;101368.91;;;21.56
67599;BMP280;62026;39.230;9.122;2022-10-16T02:09:40;101373.75;;;21.54
67599;BMP280;62026;39.230;9.122;2022-10-16T02:12:10;101373.50;;;21.51
67599;BMP280;62026;39.230;9.122;2022-10-16T02:14:39;101363.00;;;21.44
67599;BMP280;62026;39.230;9.122;2022-10-16T02:17:12;101377.50;;;21.48
67599;BMP280;62026;39.230;9.122;2022-10-16T02:19:38;101376.97;;;21.51
67599;BMP280;62026;39.230;9.122;2022-10-16T02:22:06;101372.69;;;21.45
67599;BMP280;62026;39.230;9.122;2022-10-16T02:27:57;101378.59;;;21.42
67599;BMP280;62026;39.230;9.122;2022-10-16T02:30:46;101375.63;;;21.39
67599;BMP280;62026;39.230;9.122;2022-10-16T02:33:15;101397.66;;;21.41
67599;BMP280;62026;39.230;9.122;2022-10-16T02:35:44;101383.97;;;21.32
67599;BMP280;62026;39.230;9.122;2022-10-16T02:38:12;101392.84;;;21.38
67599;BMP280;62026;39.230;9.122;2022-10-16T02:40:39;101399.53;;;21.35
67599;BMP280;62026;39.230;9.122;2022-10-16T02:43:06;101394.69;;;21.32
67599;BMP280;62026;39.230;9.122;2022-10-16T02:45:32;101406.53;;;21.36
67599;BMP280;62026;39.230;9.122;2022-10-16T02:47:58;101391.47;;;21.30
67599;BMP280;62026;39.230;9.122;2022-10-16T02:50:24;101405.72;;;21.36
67599;BMP280;62026;39.230;9.122;2022-10-16T02:52:51;101404.13;;;21.35
67599;BMP280;62026;39.230;9.122;2022-10-16T02:55:17;101403.03;;;21.31
67599;BMP280;62026;39.230;9.122;2022-10-16T02:57:43;101419.69;;;21.33
67599;BMP280;62026;39.230;9.122;2022-10-16T03:00:10;101411.88;;;21.31
67599;BMP280;62026;39.230;9.122;2022-10-16T03:02:37;101412.44;;;21.28
67599;BMP280;62026;39.230;9.122;2022-10-16T03:05:04;101418.63;;;21.29
67599;BMP280;62026;39.230;9.122;2022-10-16T03:07:30;101408.66;;;21.24
67599;BMP280;62026;39.230;9.122;2022-10-16T03:09:55;101421.56;;;21.32
67599;BMP280;62026;39.230;9.122;2022-10-16T03:12:21;101428.56;;;21.33
67599;BMP280;62026;39.230;9.122;2022-10-16T03:14:47;101421.81;;;21.31
67599;BMP280;62026;39.230;9.122;2022-10-16T03:17:13;101405.44;;;21.22
67599;BMP280;62026;39.230;9.122;2022-10-16T03:19:42;101401.13;;;21.16
67599;BMP280;62026;39.230;9.122;2022-10-16T03:22:08;101429.63;;;21.27
67599;BMP280;62026;39.230;9.122;2022-10-16T03:24:34;101425.59;;;21.24
67599;BMP280;62026;39.230;9.122;2022-10-16T03:26:59;101416.69;;;21.14
67599;BMP280;62026;39.230;9.122;2022-10-16T03:29:26;101431.75;;;21.20
67599;BMP280;62026;39.230;9.122;2022-10-16T03:31:53;101427.97;;;21.16
67599;BMP280;62026;39.230;9.122;2022-10-16T03:34:19;101422.63;;;21.16
67599;BMP280;62026;39.230;9.122;2022-10-16T03:36:44;101431.72;;;21.15
67599;BMP280;62026;39.230;9.122;2022-10-16T03:39:10;101422.59;;;21.11
67599;BMP280;62026;39.230;9.122;2022-10-16T03:41:36;101426.09;;;21.11
67599;BMP280;62026;39.230;9.122;2022-10-16T03:44:02;101428.50;;;21.08
67599;BMP280;62026;39.230;9.122;2022-10-16T03:46:28;101426.88;;;21.07
67599;BMP280;62026;39.230;9.122;2022-10-16T03:48:55;101421.50;;;21.07
67599;BMP280;62026;39.230;9.122;2022-10-16T03:51:21;101415.34;;;21.06
67599;BMP280;62026;39.230;9.122;2022-10-16T03:53:47;101419.38;;;21.04
67599;BMP280;62026;39.230;9.122;2022-10-16T03:56:13;101429.28;;;21.03
67599;BMP280;62026;39.230;9.122;2022-10-16T03:58:39;101418.28;;;21.00
67599;BMP280;62026;39.230;9.122;2022-10-16T04:01:04;101426.03;;;21.01
67599;BMP280;62026;39.230;9.122;2022-10-16T04:03:30;101423.09;;;20.93
67599;BMP280;62026;39.230;9.122;2022-10-16T04:05:56;101432.25;;;20.97
67599;BMP280;62026;39.230;9.122;2022-10-16T04:08:22;101414.47;;;20.85
67599;BMP280;62026;39.230;9.122;2022-10-16T04:10:48;101438.13;;;20.99
67599;BMP280;62026;39.230;9.122;2022-10-16T04:13:14;101414.50;;;20.91
67599;BMP280;62026;39.230;9.122;2022-10-16T04:15:40;101409.66;;;20.88
67599;BMP280;62026;39.230;9.122;2022-10-16T04:18:06;101407.75;;;20.83
67599;BMP280;62026;39.230;9.122;2022-10-16T04:20:33;101399.41;;;20.74
67599;BMP280;62026;39.230;9.122;2022-10-16T04:22:59;101433.28;;;20.96
67599;BMP280;62026;39.230;9.122;2022-10-16T04:25:25;101425.47;;;20.84
67599;BMP280;62026;39.230;9.122;2022-10-16T04:27:53;101431.66;;;20.95
67599;BMP280;62026;39.230;9.122;2022-10-16T04:30:19;101435.97;;;20.96
67599;BMP280;62026;39.230;9.122;2022-10-16T04:32:50;101434.59;;;20.88
67599;BMP280;62026;39.230;9.122;2022-10-16T04:35:20;101429.75;;;20.85
67599;BMP280;62026;39.230;9.122;2022-10-16T04:37:46;101428.69;;;20.81
67599;BMP280;62026;39.230;9.122;2022-10-16T04:40:13;101445.34;;;20.93
67599;BMP280;62026;39.230;9.122;2022-10-16T04:42:39;101432.44;;;20.85
67599;BMP280;62026;39.230;9.122;2022-10-16T04:45:06;101445.09;;;20.90
67599;BMP280;62026;39.230;9.122;2022-10-16T04:47:33;101435.97;;;20.91
67599;BMP280;62026;39.230;9.122;2022-10-16T04:49:58;101435.13;;;20.85
67599;BMP280;62026;39.230;9.122;2022-10-16T04:52:28;101438.13;;;20.89
67599;BMP280;62026;39.230;9.122;2022-10-16T04:54:54;101430.59;;;20.80
67599;BMP280;62026;39.230;9.122;2022-10-16T04:57:21;101442.41;;;20.90
67599;BMP280;62026;39.230;9.122;2022-10-16T04:59:47;101441.84;;;20.88
67599;BMP280;62026;39.230;9.122;2022-10-16T05:02:12;101448.88;;;20.89
67599;BMP280;62026;39.230;9.122;2022-10-16T05:04:38;101446.41;;;20.87
67599;BMP280;62026;39.230;9.122;2022-10-16T05:07:04;101445.91;;;20.90
67599;BMP280;62026;39.230;9.122;2022-10-16T05:09:30;101431.88;;;20.78
67599;BMP280;62026;39.230;9.122;2022-10-16T05:11:56;101429.47;;;20.76
67599;BMP280;62026;39.230;9.122;2022-10-16T05:14:22;101428.34;;;20.72
67599;BMP280;62026;39.230;9.122;2022-10-16T05:16:48;101439.69;;;20.79
67599;BMP280;62026;39.230;9.122;2022-10-16T05:19:14;101453.13;;;20.84
67599;BMP280;62026;39.230;9.122;2022-10-16T05:21:40;101446.16;;;20.83
67599;BMP280;62026;39.230;9.122;2022-10-16T05:24:06;101442.88;;;20.76
67599;BMP280;62026;39.230;9.122;2022-10-16T05:26:32;101430.25;;;20.67
67599;BMP280;62026;39.230;9.122;2022-10-16T05:28:58;101449.34;;;20.75
67599;BMP280;62026;39.230;9.122;2022-10-16T05:31:24;101459.03;;;20.81
67599;BMP280;62026;39.230;9.122;2022-10-16T05:33:50;101465.19;;;20.82
67599;BMP280;62026;39.230;9.122;2022-10-16T05:36:15;101457.16;;;20.82
67599;BMP280;62026;39.230;9.122;2022-10-16T05:38:43;101448.53;;;20.75
67599;BMP280;62026;39.230;9.122;2022-10-16T05:41:09;101471.88;;;20.79
67599;BMP280;62026;39.230;9.122;2022-10-16T05:43:35;101459.81;;;20.82
67599;BMP280;62026;39.230;9.122;2022-10-16T05:46:03;101453.13;;;20.84
67599;BMP280;62026;39.230;9.122;2022-10-16T05:48:31;101459.28;;;20.80
67599;BMP280;62026;39.230;9.122;2022-10-16T05:51:05;101461.97;;;20.85
67599;BMP280;62026;39.230;9.122;2022-10-16T05:53:34;101452.06;;;20.80
67599;BMP280;62026;39.230;9.122;2022-10-16T05:56:00;101467.06;;;20.86
67599;BMP280;62026;39.230;9.122;2022-10-16T05:58:36;101465.50;;;20.96
67599;BMP280;62026;39.230;9.122;2022-10-16T06:01:05;101445.03;;;20.79
67599;BMP280;62026;39.230;9.122;2022-10-16T06:03:33;101463.38;;;20.93
67599;BMP280;62026;39.230;9.122;2022-10-16T06:05:59;101470.41;;;21.09
67599;BMP280;62026;39.230;9.122;2022-10-16T06:08:32;101469.88;;;21.17
67599;BMP280;62026;39.230;9.122;2022-10-16T06:11:06;101466.13;;;21.23
67599;BMP280;62026;39.230;9.122;2022-10-16T06:13:32;101462.38;;;21.24
67599;BMP280;62026;39.230;9.122;2022-10-16T06:15:59;101467.22;;;21.32
67599;BMP280;62026;39.230;9.122;2022-10-16T06:18:27;101470.47;;;21.39
67599;BMP280;62026;39.230;9.122;2022-10-16T06:20:54;101471.56;;;21.43
67599;BMP280;62026;39.230;9.122;2022-10-16T06:23:20;101460.81;;;21.43
67599;BMP280;62026;39.230;9.122;2022-10-16T06:25:46;101473.72;;;21.56
67599;BMP280;62026;39.230;9.122;2022-10-16T06:28:14;101464.06;;;21.60
67599;BMP280;62026;39.230;9.122;2022-10-16T06:30:40;101462.44;;;21.59
67599;BMP280;62026;39.230;9.122;2022-10-16T06:33:06;101457.84;;;21.55
67599;BMP280;62026;39.230;9.122;2022-10-16T06:35:32;101482.34;;;21.69
67599;BMP280;62026;39.230;9.122;2022-10-16T06:37:58;101468.88;;;21.63
67599;BMP280;62026;39.230;9.122;2022-10-16T06:40:24;101483.13;;;21.64
67599;BMP280;62026;39.230;9.122;2022-10-16T06:42:50;101497.69;;;21.73
67599;BMP280;62026;39.230;9.122;2022-10-16T06:45:17;101499.53;;;21.78
67599;BMP280;62026;39.230;9.122;2022-10-16T06:47:43;101511.66;;;21.85
67599;BMP280;62026;39.230;9.122;2022-10-16T06:50:09;101506.56;;;21.89
67599;BMP280;62026;39.230;9.122;2022-10-16T06:52:35;101509.75;;;22.01
67599;BMP280;62026;39.230;9.122;2022-10-16T06:55:00;101513.50;;;21.90
67599;BMP280;62026;39.230;9.122;2022-10-16T06:57:26;101515.16;;;21.81
67599;BMP280;62026;39.230;9.122;2022-10-16T06:59:52;101513.00;;;21.73
67599;BMP280;62026;39.230;9.122;2022-10-16T07:02:18;101516.50;;;21.73
67599;BMP280;62026;39.230;9.122;2022-10-16T07:04:44;101523.22;;;21.96
67599;BMP280;62026;39.230;9.122;2022-10-16T07:07:10;101526.69;;;22.27
67599;BMP280;62026;39.230;9.122;2022-10-16T07:09:36;101528.25;;;22.48
67599;BMP280;62026;39.230;9.122;2022-10-16T07:12:02;101531.47;;;22.65
67599;BMP280;62026;39.230;9.122;2022-10-16T07:14:28;101531.69;;;22.79
67599;BMP280;62026;39.230;9.122;2022-10-16T07:16:53;101529.47;;;22.91
67599;BMP280;62026;39.230;9.122;2022-10-16T07:19:19;101508.22;;;22.85
67599;BMP280;62026;39.230;9.122;2022-10-16T07:21:45;101529.47;;;22.91
67599;BMP280;62026;39.230;9.122;2022-10-16T07:24:15;101528.38;;;22.97
67599;BMP280;62026;39.230;9.122;2022-10-16T07:26:43;101520.84;;;22.94
67599;BMP280;62026;39.230;9.122;2022-10-16T07:29:15;101527.59;;;22.97
67599;BMP280;62026;39.230;9.122;2022-10-16T07:31:42;101525.91;;;23.11
67599;BMP280;62026;39.230;9.122;2022-10-16T07:34:09;101542.25;;;23.25
67599;BMP280;62026;39.230;9.122;2022-10-16T07:36:35;101529.03;;;23.28
67599;BMP280;62026;39.230;9.122;2022-10-16T07:39:01;101547.13;;;23.67
67599;BMP280;62026;39.230;9.122;2022-10-16T07:41:28;101536.88;;;23.98
67599;BMP280;62026;39.230;9.122;2022-10-16T07:43:54;101558.78;;;23.91
67599;BMP280;62026;39.230;9.122;2022-10-16T07:46:22;101549.13;;;23.85
67599;BMP280;62026;39.230;9.122;2022-10-16T07:48:48;101552.34;;;23.87
67599;BMP280;62026;39.230;9.122;2022-10-16T07:51:17;101542.25;;;23.98
67599;BMP280;62026;39.230;9.122;2022-10-16T07:53:43;101551.84;;;24.14
67599;BMP280;62026;39.230;9.122;2022-10-16T07:56:09;101544.38;;;24.01
67599;BMP280;62026;39.230;9.122;2022-10-16T07:58:36;101551.66;;;24.34
67599;BMP280;62026;39.230;9.122;2022-10-16T08:01:06;101550.97;;;24.47
67599;BMP280;62026;39.230;9.122;2022-10-16T08:03:33;101560.22;;;24.41
67599;BMP280;62026;39.230;9.122;2022-10-16T08:05:59;101548.09;;;24.62
67599;BMP280;62026;39.230;9.122;2022-10-16T08:08:26;101554.31;;;24.63
67599;BMP280;62026;39.230;9.122;2022-10-16T08:10:53;101550.84;;;24.57
67599;BMP280;62026;39.230;9.122;2022-10-16T08:13:19;101555.09;;;24.87
67599;BMP280;62026;39.230;9.122;2022-10-16T08:15:45;101556.81;;;25.02
67599;BMP280;62026;39.230;9.122;2022-10-16T08:18:12;101566.00;;;25.01
67599;BMP280;62026;39.230;9.122;2022-10-16T08:20:39;101573.06;;;24.97
67599;BMP280;62026;39.230;9.122;2022-10-16T08:23:06;101571.88;;;24.84
67599;BMP280;62026;39.230;9.122;2022-10-16T08:25:35;101576.34;;;24.94
67599;BMP280;62026;39.230;9.122;2022-10-16T08:28:06;101579.88;;;24.94
67599;BMP280;62026;39.230;9.122;2022-10-16T08:30:33;101578.53;;;24.92
67599;BMP280;62026;39.230;9.122;2022-10-16T08:32:59;101581.25;;;25.10
67599;BMP280;62026;39.230;9.122;2022-10-16T08:35:25;101583.03;;;25.01
67599;BMP280;62026;39.230;9.122;2022-10-16T08:37:51;101584.59;;;25.26
67599;BMP280;62026;39.230;9.122;2022-10-16T08:40:18;101582.66;;;25.08
67599;BMP280;62026;39.230;9.122;2022-10-16T08:45:48;101593.81;;;25.20
67599;BMP280;62026;39.230;9.122;2022-10-16T08:50:48;101592.53;;;25.17
67599;BMP280;62026;39.230;9.122;2022-10-16T08:53:23;101591.72;;;25.54
67599;BMP280;62026;39.230;9.122;2022-10-16T08:55:51;101572.88;;;25.49
67599;BMP280;62026;39.230;9.122;2022-10-16T08:58:19;101603.78;;;25.43
67599;BMP280;62026;39.230;9.122;2022-10-16T09:01:11;101597.94;;;25.55
67599;BMP280;62026;39.230;9.122;2022-10-16T09:20:24;101617.81;;;25.64
67599;BMP280;62026;39.230;9.122;2022-10-16T09:22:46;101609.19;;;25.62
67599;BMP280;62026;39.230;9.122;2022-10-16T09:25:15;101621.72;;;25.39
67599;BMP280;62026;39.230;9.122;2022-10-16T09:27:44;101619.78;;;25.58
67599;BMP280;62026;39.230;9.122;2022-10-16T09:30:17;101612.84;;;25.34
67599;BMP280;62026;39.230;9.122;2022-10-16T09:32:44;101605.50;;;25.39
67599;BMP280;62026;39.230;9.122;2022-10-16T09:35:17;101609.78;;;25.40
67599;BMP280;62026;39.230;9.122;2022-10-16T09:37:47;101614.81;;;25.28
67599;BMP280;62026;39.230;9.122;2022-10-16T09:40:28;101602.34;;;25.32
67599;BMP280;62026;39.230;9.122;2022-10-16T09:43:02;101611.94;;;25.20
67599;BMP280;62026;39.230;9.122;2022-10-16T09:45:29;101630.31;;;25.41
67599;BMP280;62026;39.230;9.122;2022-10-16T09:47:55;101605.50;;;25.39
67599;BMP280;62026;39.230;9.122;2022-10-16T09:50:28;101610.91;;;25.39
67599;BMP280;62026;39.230;9.122;2022-10-16T09:53:14;101606.09;;;25.12
67599;BMP280;62026;39.230;9.122;2022-10-16T09:55:50;101595.38;;;25.26
67599;BMP280;62026;39.230;9.122;2022-10-16T09:58:17;101604.69;;;25.39
67599;BMP280;62026;39.230;9.122;2022-10-16T10:00:49;101602.44;;;25.03
67599;BMP280;62026;39.230;9.122;2022-10-16T10:03:38;101609.25;;;25.01
67599;BMP280;62026;39.230;9.122;2022-10-16T10:06:26;101612.75;;;25.20
67599;BMP280;62026;39.230;9.122;2022-10-16T10:14:17;101619.41;;;25.09
67599;BMP280;62026;39.230;9.122;2022-10-16T10:16:43;101596.78;;;25.00
67599;BMP280;62026;39.230;9.122;2022-10-16T10:19:27;101601.38;;;24.99
67599;BMP280;62026;39.230;9.122;2022-10-16T10:21:53;101612.44;;;25.03
67599;BMP280;62026;39.230;9.122;2022-10-16T10:24:19;101639.78;;;25.20
67599;BMP280;62026;39.230;9.122;2022-10-16T10:27:04;101607.03;;;25.03
67599;BMP280;62026;39.230;9.122;2022-10-16T10:29:49;101607.72;;;24.90
67599;BMP280;62026;39.230;9.122;2022-10-16T10:32:19;101607.50;;;24.86
67599;BMP280;62026;39.230;9.122;2022-10-16T10:35:22;101607.84;;;24.80
67599;BMP280;62026;39.230;9.122;2022-10-16T10:41:44;101608.31;;;24.63
67599;BMP280;62026;39.230;9.122;2022-10-16T10:44:18;101589.00;;;24.74
67599;BMP280;62026;39.230;9.122;2022-10-16T10:46:51;101609.63;;;24.65
67599;BMP280;62026;39.230;9.122;2022-10-16T10:54:37;101597.53;;;24.34
67599;BMP280;62026;39.230;9.122;2022-10-16T10:57:21;101596.06;;;24.47
67599;BMP280;62026;39.230;9.122;2022-10-16T11:05:31;101597.50;;;24.39
67599;BMP280;62026;39.230;9.122;2022-10-16T11:08:17;101620.53;;;24.26
67599;BMP280;62026;39.230;9.122;2022-10-16T11:11:04;101600.25;;;24.29
67599;BMP280;62026;39.230;9.122;2022-10-16T11:13:37;101593.78;;;24.30
67599;BMP280;62026;39.230;9.122;2022-10-16T11:16:18;101620.88;;;24.20
67599;BMP280;62026;39.230;9.122;2022-10-16T11:21:19;101612.75;;;24.25
67599;BMP280;62026;39.230;9.122;2022-10-16T11:23:59;101598.22;;;24.16
67599;BMP280;62026;39.230;9.122;2022-10-16T11:26:30;101587.78;;;24.09
67599;BMP280;62026;39.230;9.122;2022-10-16T11:29:00;101577.69;;;24.20
67599;BMP280;62026;39.230;9.122;2022-10-16T11:31:45;101596.25;;;24.26
67599;BMP280;62026;39.230;9.122;2022-10-16T11:34:29;101577.53;;;24.06
67599;BMP280;62026;39.230;9.122;2022-10-16T11:37:14;101587.31;;;24.02
67599;BMP280;62026;39.230;9.122;2022-10-16T11:39:43;101563.91;;;24.21
67599;BMP280;62026;39.230;9.122;2022-10-16T11:48:26;101554.28;;;23.81
67599;BMP280;62026;39.230;9.122;2022-10-16T11:51:02;101575.88;;;23.81
67599;BMP280;62026;39.230;9.122;2022-10-16T11:53:43;101574.16;;;23.90
67599;BMP280;62026;39.230;9.122;2022-10-16T11:56:17;101553.38;;;23.91
67599;BMP280;62026;39.230;9.122;2022-10-16T12:04:31;101575.88;;;23.81
67599;BMP280;62026;39.230;9.122;2022-10-16T12:07:03;101563.94;;;23.87
67599;BMP280;62026;39.230;9.122;2022-10-16T12:09:31;101536.50;;;23.80
67599;BMP280;62026;39.230;9.122;2022-10-16T12:11:58;101540.75;;;23.86
67599;BMP280;62026;39.230;9.122;2022-10-16T12:22:47;101538.00;;;23.58
67599;BMP280;62026;39.230;9.122;2022-10-16T12:27:59;101563.53;;;23.70
67599;BMP280;62026;39.230;9.122;2022-10-16T12:30:27;101558.72;;;23.62
67599;BMP280;62026;39.230;9.122;2022-10-16T12:35:45;101550.66;;;23.57
67599;BMP280;62026;39.230;9.122;2022-10-16T12:38:27;101537.50;;;23.50
67599;BMP280;62026;39.230;9.122;2022-10-16T12:41:02;101561.75;;;23.55
67599;BMP280;62026;39.230;9.122;2022-10-16T12:43:42;101568.09;;;23.70
67599;BMP280;62026;39.230;9.122;2022-10-16T12:48:35;101553.31;;;23.62
67599;BMP280;62026;39.230;9.122;2022-10-16T12:54:09;101564.09;;;23.67
67599;BMP280;62026;39.230;9.122;2022-10-16T12:56:56;101551.44;;;23.63
67599;BMP280;62026;39.230;9.122;2022-10-16T12:59:42;101550.13;;;23.55
67599;BMP280;62026;39.230;9.122;2022-10-16T13:02:18;101550.63;;;23.62
67599;BMP280;62026;39.230;9.122;2022-10-16T13:19:44;101566.22;;;23.70
67599;BMP280;62026;39.230;9.122;2022-10-16T13:22:25;101554.00;;;23.44
67599;BMP280;62026;39.230;9.122;2022-10-16T13:30:25;101558.06;;;23.80
67599;BMP280;62026;39.230;9.122;2022-10-16T13:35:32;101565.19;;;23.66
67599;BMP280;62026;39.230;9.122;2022-10-16T13:38:22;101554.38;;;23.71
67599;BMP280;62026;39.230;9.122;2022-10-16T13:43:17;101550.63;;;23.67
67599;BMP280;62026;39.230;9.122;2022-10-16T13:45:53;101545.81;;;23.64
67599;BMP280;62026;39.230;9.122;2022-10-16T13:48:20;101547.19;;;23.57
67599;BMP280;62026;39.230;9.122;2022-10-16T13:51:06;101561.09;;;23.69
67599;BMP280;62026;39.230;9.122;2022-10-16T13:53:36;101542.59;;;23.57
67599;BMP280;62026;39.230;9.122;2022-10-16T13:56:07;101559.38;;;23.83
67599;BMP280;62026;39.230;9.122;2022-10-16T13:58:35;101561.59;;;23.76
67599;BMP280;62026;39.230;9.122;2022-10-16T14:01:04;101563.78;;;23.74
67599;BMP280;62026;39.230;9.122;2022-10-16T14:03:32;101562.81;;;23.60
67599;BMP280;62026;39.230;9.122;2022-10-16T14:06:05;101557.31;;;23.70
67599;BMP280;62026;39.230;9.122;2022-10-16T14:08:32;101566.16;;;23.75
67599;BMP280;62026;39.230;9.122;2022-10-16T14:11:00;101553.88;;;23.64
67599;BMP280;62026;39.230;9.122;2022-10-16T14:13:46;101560.91;;;23.60
67599;BMP280;62026;39.230;9.122;2022-10-16T14:16:31;101568.84;;;23.80
67599;BMP280;62026;39.230;9.122;2022-10-16T14:19:06;101576.19;;;23.75
67599;BMP280;62026;39.230;9.122;2022-10-16T14:21:40;101557.56;;;23.78
67599;BMP280;62026;39.230;9.122;2022-10-16T14:24:14;101568.09;;;23.75
67599;BMP280;62026;39.230;9.122;2022-10-16T14:26:48;101576.03;;;23.90
67599;BMP280;62026;39.230;9.122;2022-10-16T14:29:19;101574.25;;;23.75
67599;BMP280;62026;39.230;9.122;2022-10-16T14:31:55;101579.16;;;23.68
67599;BMP280;62026;39.230;9.122;2022-10-16T14:34:30;101594.84;;;23.66
67599;BMP280;62026;39.230;9.122;2022-10-16T14:37:00;101588.16;;;23.59
67599;BMP280;62026;39.230;9.122;2022-10-16T14:39:28;101588.94;;;23.59
67599;BMP280;62026;39.230;9.122;2022-10-16T14:41:56;101571.16;;;23.58
67599;BMP280;62026;39.230;9.122;2022-10-16T14:44:28;101572.84;;;23.49
67599;BMP280;62026;39.230;9.122;2022-10-16T14:46:55;101590.56;;;23.60
67599;BMP280;62026;39.230;9.122;2022-10-16T14:49:22;101563.41;;;23.46
67599;BMP280;62026;39.230;9.122;2022-10-16T14:51:49;101582.16;;;23.67
67599;BMP280;62026;39.230;9.122;2022-10-16T14:54:17;101579.44;;;23.72
67599;BMP280;62026;39.230;9.122;2022-10-16T14:56:47;101577.53;;;23.72
67599;BMP280;62026;39.230;9.122;2022-10-16T14:59:40;101579.06;;;23.49
67599;BMP280;62026;39.230;9.122;2022-10-16T15:04:47;101585.22;;;23.50
67599;BMP280;62026;39.230;9.122;2022-10-16T15:07:13;101582.06;;;23.38
67599;BMP280;62026;39.230;9.122;2022-10-16T15:09:39;101573.13;;;23.42
67599;BMP280;62026;39.230;9.122;2022-10-16T15:12:05;101586.34;;;23.39
67599;BMP280;62026;39.230;9.122;2022-10-16T15:14:31;101581.56;;;23.31
67599;BMP280;62026;39.230;9.122;2022-10-16T15:16:57;101575.13;;;23.16
67599;BMP280;62026;39.230;9.122;2022-10-16T15:19:24;101579.72;;;23.26
67599;BMP280;62026;39.230;9.122;2022-10-16T15:21:50;101579.66;;;23.36
67599;BMP280;62026;39.230;9.122;2022-10-16T15:24:16;101586.72;;;23.27
67599;BMP280;62026;39.230;9.122;2022-10-16T15:26:42;101590.72;;;23.30
67599;BMP280;62026;39.230;9.122;2022-10-16T15:29:08;101579.97;;;23.25
67599;BMP280;62026;39.230;9.122;2022-10-16T15:31:34;101591.38;;;23.06
67599;BMP280;62026;39.230;9.122;2022-10-16T15:34:00;101588.38;;;23.18
67599;BMP280;62026;39.230;9.122;2022-10-16T15:36:34;101588.88;;;23.25
67599;BMP280;62026;39.230;9.122;2022-10-16T15:39:22;101584.25;;;23.31
67599;BMP280;62026;39.230;9.122;2022-10-16T15:41:48;101586.41;;;23.29
67599;BMP280;62026;39.230;9.122;2022-10-16T15:44:19;101589.94;;;23.29
67599;BMP280;62026;39.230;9.122;2022-10-16T15:46:46;101588.09;;;23.14
67599;BMP280;62026;39.230;9.122;2022-10-16T15:49:12;101564.22;;;22.93
67599;BMP280;62026;39.230;9.122;2022-10-16T15:51:39;101589.50;;;23.02
67599;BMP280;62026;39.230;9.122;2022-10-16T15:54:06;101591.34;;;23.01
67599;BMP280;62026;39.230;9.122;2022-10-16T15:56:31;101597.31;;;23.03
67599;BMP280;62026;39.230;9.122;2022-10-16T15:59:02;101594.59;;;23.08
67599;BMP280;62026;39.230;9.122;2022-10-16T16:01:28;101588.44;;;22.98
67599;BMP280;62026;39.230;9.122;2022-10-16T16:03:57;101578.25;;;22.85
67599;BMP280;62026;39.230;9.122;2022-10-16T16:06:23;101592.50;;;22.90
67599;BMP280;62026;39.230;9.122;2022-10-16T16:08:52;101589.81;;;22.95
67599;BMP280;62026;39.230;9.122;2022-10-16T16:11:19;101593.31;;;22.86
67599;BMP280;62026;39.230;9.122;2022-10-16T16:13:47;101589.81;;;22.90
67599;BMP280;62026;39.230;9.122;2022-10-16T16:16:15;101588.19;;;22.94